Terminal Aerodrome Forecast
Issued by NWS Atlanta, GA

Home | Current Version | Previous Version | Text Only | Print | Product List | Glossary On
Versions: 1 2 3 4 5 6 7 8 9 10 11 12 13 14 15 16 17 18 19 20 21 22 23 24 25 26 27 28 29 30 31 32 33 34 35 36 37 38
000
FTUS42 KFFC 271952 AAA
TAFATL
TAF AMD
KATL 271952Z 2720/2824 35010KT P6SM BKN200
     FM280000 34008KT P6SM BKN200
     FM280500 03004KT P6SM BKN150
     FM281500 09010G17KT P6SM SCT035 BKN150
     FM282000 08010KT P6SM -RA SCT040 OVC080=

USA.gov is the U.S. government's official web portal to all federal, state and local government web resources and services.